Auburn, Mississippi
Current Conditions -  °F | °C
As of 12:53 PM on Tuesday 27 Jan 2015 (Local Time) from KMCB Reporting Station
Clear Clear  
Wind Chill: 21°   Ceiling: Unl
Heat Index: 21°   Visibility: 10mi
Dew Point:   Wind: 8mph
Humidity: 27%   Direction: 360°N
Pressure: 30.08"   Gusts: NA
Location:  31.3682°N, 90.6714°W
Report Text: KMCB 271853Z AUTO 36007KT 10SM CLR 21/01 A3008 RMK AO2 SLP185 T02060011
Loading
Personal Weather Stations






























Interactive Weather Map New forecast layout! Learn more

10-Day Weather Forecast

Advertisements
Track Severe Weather on mobile